createdAt,value
2022-10-13T00:01:25.630Z,102013.02
2022-10-13T00:03:55.063Z,102013.20
2022-10-13T00:06:27.475Z,102020.86
2022-10-13T00:08:56.879Z,102017.17
2022-10-13T00:11:28.257Z,102018.27
2022-10-13T00:13:59.967Z,102018.06
2022-10-13T00:16:33.027Z,102019.88
2022-10-13T00:19:02.334Z,102016.71
2022-10-13T00:21:30.851Z,102018.35
2022-10-13T00:23:59.721Z,102014.38
2022-10-13T00:26:28.473Z,102015.40
2022-10-13T00:28:57.434Z,102012.52
2022-10-13T00:31:29.863Z,102013.49
2022-10-13T00:33:59.983Z,102015.81
2022-10-13T00:36:29.347Z,102012.06
2022-10-13T00:38:58.638Z,102011.72
2022-10-13T00:41:27.425Z,102011.77
2022-10-13T00:44:19.104Z,102015.19
2022-10-13T00:46:47.594Z,102012.51
2022-10-13T00:49:16.120Z,102013.23
2022-10-13T00:51:50.465Z,102011.02
2022-10-13T00:54:25.087Z,102013.18
2022-10-13T00:56:54.515Z,102009.94
2022-10-13T00:59:29.401Z,102008.33
2022-10-13T01:01:59.699Z,102008.44
2022-10-13T01:04:34.902Z,102010.98
2022-10-13T01:07:04.809Z,102004.08
2022-10-13T01:09:38.010Z,102011.07
2022-10-13T01:12:48.788Z,102013.00
2022-10-13T01:15:43.199Z,102012.83
2022-10-13T01:18:25.661Z,102010.23
2022-10-13T01:21:58.863Z,102009.02
2022-10-13T01:25:09.509Z,102011.14
2022-10-13T01:28:28.088Z,102010.61
2022-10-13T01:31:10.752Z,102011.77
2022-10-13T01:33:56.835Z,102009.18
2022-10-13T01:36:57.598Z,102009.48
2022-10-13T01:39:44.766Z,102010.46
2022-10-13T01:42:31.592Z,102004.97
2022-10-13T01:45:02.841Z,102005.69
2022-10-13T01:47:34.608Z,102002.17
2022-10-13T01:50:06.470Z,102005.10
2022-10-13T01:52:39.466Z,102003.59
2022-10-13T01:55:11.564Z,102003.94
2022-10-13T01:57:43.816Z,102004.35
2022-10-13T02:00:19.226Z,102001.15
2022-10-13T02:03:08.754Z,102005.08
2022-10-13T02:06:02.501Z,102001.86
2022-10-13T02:08:45.304Z,102002.48
2022-10-13T02:11:22.448Z,102006.22
2022-10-13T02:14:28.293Z,102012.55
2022-10-13T02:17:01.983Z,102014.15
2022-10-13T02:19:34.433Z,102014.17
2022-10-13T02:22:04.600Z,102011.33
2022-10-13T02:24:33.445Z,102011.77
2022-10-13T02:27:02.306Z,102015.70
2022-10-13T02:29:30.951Z,102014.98
2022-10-13T02:31:59.474Z,102018.42
2022-10-13T02:34:28.143Z,102017.92
2022-10-13T02:36:56.894Z,102017.50
2022-10-13T02:39:25.443Z,102017.67
2022-10-13T02:41:53.958Z,102018.35
2022-10-13T02:44:25.067Z,102017.10
2022-10-13T02:46:53.598Z,102015.74
2022-10-13T02:49:22.241Z,102013.30
2022-10-13T02:51:50.800Z,102011.98
2022-10-13T02:54:19.829Z,102007.73
2022-10-13T02:56:48.438Z,102011.41
2022-10-13T02:59:17.087Z,102013.70
2022-10-13T03:01:45.671Z,102015.08
2022-10-13T03:04:14.298Z,102017.95
2022-10-13T03:06:42.804Z,102024.20
2022-10-13T03:09:12.383Z,102022.39
2022-10-13T03:11:43.363Z,102021.59
2022-10-13T03:14:11.949Z,102023.59
2022-10-13T03:16:40.736Z,102027.72
2022-10-13T03:19:11.938Z,102031.66
2022-10-13T03:21:40.603Z,102029.89
2022-10-13T03:24:09.375Z,102033.23
2022-10-13T03:26:38.314Z,102032.55
2022-10-13T03:29:06.813Z,102030.50
2022-10-13T03:31:35.683Z,102027.46
2022-10-13T03:34:04.235Z,102024.97
2022-10-13T03:36:32.771Z,102027.13
2022-10-13T03:39:01.388Z,102027.64
2022-10-13T03:41:29.956Z,102028.64
2022-10-13T03:43:58.469Z,102025.55
2022-10-13T03:46:30.222Z,102027.52
2022-10-13T03:48:59.898Z,102025.13
2022-10-13T03:51:30.926Z,102025.66
2022-10-13T03:53:59.620Z,102026.17
2022-10-13T03:56:28.717Z,102021.07
2022-10-13T03:59:00.636Z,102027.78
2022-10-13T04:01:30.927Z,102025.38
2022-10-13T04:04:02.626Z,102021.36
2022-10-13T04:06:31.934Z,102019.23
2022-10-13T04:09:00.538Z,102016.22
2022-10-13T04:11:29.702Z,102016.05
2022-10-13T04:13:59.069Z,102012.09
2022-10-13T04:16:31.336Z,102012.42
2022-10-13T04:19:05.659Z,102015.40
2022-10-13T04:21:35.965Z,102014.24
2022-10-13T04:24:06.068Z,102011.27
2022-10-13T04:26:36.572Z,102009.61
2022-10-13T04:29:11.158Z,102011.60
2022-10-13T04:31:42.995Z,102019.83
2022-10-13T04:34:12.404Z,102016.35
2022-10-13T04:36:40.969Z,102021.47
2022-10-13T04:39:09.489Z,102022.04
2022-10-13T04:41:38.044Z,102025.63
2022-10-13T04:44:06.559Z,102025.77
2022-10-13T04:46:35.169Z,102016.55
2022-10-13T04:49:04.934Z,102022.45
2022-10-13T04:51:33.823Z,102018.70
2022-10-13T04:54:03.492Z,102019.95
2022-10-13T04:56:32.591Z,102019.88
2022-10-13T04:59:06.082Z,102019.67
2022-10-13T05:01:36.146Z,102017.20
2022-10-13T05:04:08.124Z,102016.15
2022-10-13T05:07:05.364Z,102018.71
2022-10-13T05:09:30.944Z,102020.23
2022-10-13T05:11:59.517Z,102021.83
2022-10-13T05:14:28.172Z,102019.69
2022-10-13T05:16:56.736Z,102021.15
2022-10-13T05:19:25.279Z,102022.35
2022-10-13T05:21:53.817Z,102022.49
2022-10-13T05:24:31.171Z,102025.98
2022-10-13T05:26:59.871Z,102027.54
2022-10-13T05:29:28.871Z,102038.33
2022-10-13T05:31:57.510Z,102036.13
2022-10-13T05:34:26.183Z,102040.70
2022-10-13T05:36:54.750Z,102044.90
2022-10-13T05:39:23.314Z,102046.65
2022-10-13T05:41:51.834Z,102050.42
2022-10-13T05:44:23.199Z,102050.53
2022-10-13T05:46:55.010Z,102051.37
2022-10-13T05:49:23.584Z,102049.45
2022-10-13T05:52:04.299Z,102052.61
2022-10-13T05:54:46.956Z,102053.33
2022-10-13T05:57:24.581Z,102053.17
2022-10-13T05:59:58.429Z,102052.91
2022-10-13T06:02:35.174Z,102053.38
2022-10-13T06:05:06.396Z,102059.88
2022-10-13T06:07:35.086Z,102058.55
2022-10-13T06:10:03.898Z,102059.94
2022-10-13T06:12:32.488Z,102055.95
2022-10-13T06:15:05.279Z,102051.23
2022-10-13T06:17:39.331Z,102057.40
2022-10-13T06:20:09.059Z,102060.77
2022-10-13T06:22:38.126Z,102062.79
2022-10-13T06:25:07.862Z,102060.71
2022-10-13T06:27:36.459Z,102059.88
2022-10-13T06:30:05.849Z,102058.95
2022-10-13T06:32:34.700Z,102057.30
2022-10-13T06:35:03.747Z,102059.55
2022-10-13T06:37:32.373Z,102059.11
2022-10-13T06:40:00.989Z,102061.04
2022-10-13T06:42:32.308Z,102061.61
2022-10-13T06:45:10.857Z,102066.34
2022-10-13T06:47:42.093Z,102063.23
2022-10-13T06:50:10.989Z,102059.64
2022-10-13T06:52:39.777Z,102057.96
2022-10-13T06:55:08.767Z,102064.07
2022-10-13T06:57:38.401Z,102068.59
2022-10-13T07:00:09.032Z,102070.33
2022-10-13T07:02:39.208Z,102071.17
2022-10-13T07:05:08.373Z,102073.44
2022-10-13T07:07:36.920Z,102069.75
2022-10-13T07:10:06.348Z,102069.30
2022-10-13T07:12:34.953Z,102070.77
2022-10-13T07:15:03.929Z,102066.39
2022-10-13T07:17:32.436Z,102069.53
2022-10-13T07:20:07.372Z,102069.27
2022-10-13T07:22:44.500Z,102070.08
2022-10-13T07:25:13.369Z,102073.93
2022-10-13T07:27:42.284Z,102076.14
2022-10-13T07:30:12.742Z,102076.52
2022-10-13T07:32:42.530Z,102074.09
2022-10-13T07:35:12.111Z,102075.05
2022-10-13T07:37:40.799Z,102077.38
2022-10-13T07:40:10.190Z,102078.94
2022-10-13T07:42:50.865Z,102082.30
2022-10-13T07:45:19.388Z,102083.08
2022-10-13T07:47:48.024Z,102082.97
2022-10-13T07:50:16.678Z,102082.38
2022-10-13T07:52:45.304Z,102079.81
2022-10-13T07:55:14.044Z,102078.29
2022-10-13T07:57:42.558Z,102075.40
2022-10-13T08:00:12.250Z,102073.91
2022-10-13T08:02:43.736Z,102076.80
2022-10-13T08:05:12.294Z,102072.92
2022-10-13T08:07:40.871Z,102069.52
2022-10-13T08:10:09.803Z,102067.92
2022-10-13T08:12:38.737Z,102066.75
2022-10-13T08:15:09.556Z,102066.45
2022-10-13T08:17:38.267Z,102065.24
2022-10-13T08:20:07.925Z,102067.59
2022-10-13T08:22:36.678Z,102070.56
2022-10-13T08:25:07.456Z,102066.45
2022-10-13T08:27:50.660Z,102069.84
2022-10-13T08:30:20.313Z,102071.05
2022-10-13T08:32:48.915Z,102071.42
2022-10-13T08:35:17.557Z,102069.59
2022-10-13T08:37:46.075Z,102065.78
2022-10-13T08:40:23.133Z,102063.45
2022-10-13T08:42:54.534Z,102065.17
2022-10-13T08:45:45.921Z,102061.28
2022-10-13T08:48:27.987Z,102063.19
2022-10-13T08:51:03.416Z,102062.55
2022-10-13T08:53:37.515Z,102062.02
2022-10-13T08:56:42.748Z,102057.81
2022-10-13T08:59:15.037Z,102060.27
2022-10-13T09:01:49.095Z,102064.17
2022-10-13T09:04:36.574Z,102066.05
2022-10-13T09:07:19.908Z,102064.41
2022-10-13T09:09:54.876Z,102066.34
2022-10-13T09:12:26.493Z,102067.64
2022-10-13T09:15:12.205Z,102067.59
2022-10-13T09:17:42.002Z,102067.30
2022-10-13T09:20:25.140Z,102063.95
2022-10-13T09:23:07.578Z,102067.63
2022-10-13T09:25:45.900Z,102071.33
2022-10-13T09:28:27.676Z,102076.35
2022-10-13T09:31:26.927Z,102076.41
2022-10-13T09:34:18.942Z,102073.55
2022-10-13T09:37:06.852Z,102074.10
2022-10-13T09:39:35.381Z,102067.79
2022-10-13T09:42:27.118Z,102067.20
2022-10-13T09:45:15.874Z,102064.38
2022-10-13T09:48:05.955Z,102061.21
2022-10-13T09:50:35.900Z,102060.69
2022-10-13T09:53:35.619Z,102058.34
2022-10-13T09:56:19.656Z,102062.55
2022-10-13T09:59:13.421Z,102062.02
2022-10-13T10:01:46.429Z,102058.28
2022-10-13T10:04:20.588Z,102055.51
2022-10-13T10:06:49.442Z,102053.02
2022-10-13T10:09:33.616Z,102050.41
2022-10-13T10:12:04.103Z,102047.98
2022-10-13T10:14:37.027Z,102044.74
2022-10-13T10:17:05.500Z,102041.09
2022-10-13T10:19:45.639Z,102041.98
2022-10-13T10:22:38.395Z,102035.00
2022-10-13T10:25:42.048Z,102033.70
2022-10-13T10:28:32.111Z,102029.25
2022-10-13T10:31:36.789Z,102030.16
2022-10-13T10:34:35.826Z,102031.52
2022-10-13T10:37:25.591Z,102032.54
2022-10-13T10:40:04.244Z,102031.95
2022-10-13T10:42:52.558Z,102022.20
2022-10-13T10:45:27.013Z,102018.70
2022-10-13T10:48:14.801Z,102017.13
2022-10-13T10:50:43.452Z,102015.33
2022-10-13T10:53:45.855Z,102012.80
2022-10-13T10:56:32.113Z,102007.83
2022-10-13T10:59:36.900Z,102008.84
2022-10-13T11:02:08.451Z,102010.43
2022-10-13T11:04:49.407Z,102011.46
2022-10-13T11:07:23.972Z,102013.30
2022-10-13T11:10:14.474Z,102010.29
2022-10-13T11:12:52.254Z,102006.20
2022-10-13T11:15:31.282Z,102004.73
2022-10-13T11:17:59.790Z,102000.95
2022-10-13T11:20:59.431Z,101998.60
2022-10-13T11:23:34.117Z,101997.48
2022-10-13T11:26:43.350Z,101996.39
2022-10-13T11:29:20.057Z,101991.92
2022-10-13T11:31:55.364Z,101989.14
2022-10-13T11:34:32.219Z,101988.10
2022-10-13T11:37:03.202Z,101984.22
2022-10-13T11:39:37.935Z,101982.64
2022-10-13T11:42:35.251Z,101979.10
2022-10-13T11:45:34.702Z,101974.89
2022-10-13T11:48:24.210Z,101973.95
2022-10-13T11:51:26.193Z,101965.98
2022-10-13T11:54:19.551Z,101968.04
2022-10-13T11:56:52.461Z,101960.65
2022-10-13T11:59:37.770Z,101956.83
2022-10-13T12:02:07.370Z,101956.75
2022-10-13T12:04:36.021Z,101952.97
2022-10-13T12:07:09.508Z,101954.61
2022-10-13T12:09:54.492Z,101956.10
2022-10-13T12:12:24.724Z,101954.85
2022-10-13T12:15:01.072Z,101952.15
2022-10-13T12:17:39.208Z,101951.81
2022-10-13T12:20:28.059Z,101953.73
2022-10-13T12:22:57.855Z,101948.11
2022-10-13T12:25:29.456Z,101943.48
2022-10-13T12:28:01.591Z,101939.60
2022-10-13T12:30:38.706Z,101935.69
2022-10-13T12:33:35.471Z,101932.36
2022-10-13T12:36:22.883Z,101932.96
2022-10-13T12:38:57.065Z,101933.24
2022-10-13T12:41:35.696Z,101933.69
2022-10-13T12:44:06.963Z,101932.57
2022-10-13T12:46:40.593Z,101933.46
2022-10-13T12:49:23.740Z,101928.86
2022-10-13T12:52:14.611Z,101925.43
2022-10-13T12:54:55.538Z,101929.84
2022-10-13T12:57:38.168Z,101925.50
2022-10-13T13:00:30.982Z,101918.04
2022-10-13T13:03:03.773Z,101918.64
2022-10-13T13:05:51.640Z,101917.41
2022-10-13T13:08:31.870Z,101916.14
2022-10-13T13:11:03.904Z,101913.84
2022-10-13T13:13:32.407Z,101915.48
2022-10-13T13:16:18.550Z,101916.35
2022-10-13T13:18:51.887Z,101912.86
2022-10-13T13:21:21.087Z,101912.07
2022-10-13T13:23:53.691Z,101911.61
2022-10-13T13:26:23.879Z,101907.84
2022-10-13T13:28:56.725Z,101906.20
2022-10-13T13:31:26.674Z,101902.88
2022-10-13T13:33:55.293Z,101907.95
2022-10-13T13:36:26.129Z,101904.92
2022-10-13T13:38:54.923Z,101900.30
2022-10-13T13:41:27.870Z,101896.75
2022-10-13T13:43:56.233Z,101900.86
2022-10-13T13:46:27.852Z,101897.82
2022-10-13T13:48:56.649Z,101899.17
2022-10-13T13:51:25.376Z,101891.48
2022-10-13T13:53:54.026Z,101895.57
2022-10-13T13:56:22.606Z,101895.79
2022-10-13T13:58:51.157Z,101895.80
2022-10-13T14:01:19.698Z,101895.20
2022-10-13T14:03:48.350Z,101896.48
2022-10-13T14:06:20.835Z,101891.77
2022-10-13T14:08:50.211Z,101892.84
2022-10-13T14:11:19.237Z,101894.42
2022-10-13T14:13:47.869Z,101890.44
2022-10-13T14:16:18.352Z,101891.86
2022-10-13T14:18:46.969Z,101892.77
2022-10-13T14:21:15.471Z,101888.90
2022-10-13T14:23:47.145Z,101887.44
2022-10-13T14:26:16.191Z,101890.78
2022-10-13T14:28:45.724Z,101893.54
2022-10-13T14:31:14.296Z,101896.20
2022-10-13T14:33:44.108Z,101893.54
2022-10-13T14:36:12.693Z,101890.85
2022-10-13T14:38:41.203Z,101891.38
2022-10-13T14:41:10.004Z,101894.06
2022-10-13T14:43:42.706Z,101893.98
2022-10-13T14:46:11.595Z,101896.17
2022-10-13T14:48:40.160Z,101894.34
2022-10-13T14:51:10.966Z,101895.25
2022-10-13T14:53:42.807Z,101895.25
2022-10-13T14:56:26.600Z,101895.50
2022-10-13T14:59:02.506Z,101892.98
2022-10-13T15:01:38.814Z,101894.09
2022-10-13T15:04:10.676Z,101891.69
2022-10-13T15:06:40.385Z,101891.06
2022-10-13T15:09:10.145Z,101890.27
2022-10-13T15:11:39.071Z,101890.55
2022-10-13T15:14:08.069Z,101889.37
2022-10-13T15:16:38.098Z,101890.08
2022-10-13T15:19:06.826Z,101891.70
2022-10-13T15:21:35.651Z,101890.66
2022-10-13T15:24:04.912Z,101895.02
2022-10-13T15:26:36.967Z,101897.42
2022-10-13T15:29:05.599Z,101896.02
2022-10-13T15:31:34.101Z,101897.74
2022-10-13T15:34:02.720Z,101897.66
2022-10-13T15:36:31.273Z,101896.98
2022-10-13T15:38:59.768Z,101894.68
2022-10-13T15:41:28.363Z,101895.02
2022-10-13T15:43:56.912Z,101897.82
2022-10-13T15:46:27.548Z,101899.52
2022-10-13T15:48:56.932Z,101898.27
2022-10-13T15:51:27.156Z,101898.65
2022-10-13T15:53:55.942Z,101899.26
2022-10-13T15:56:24.947Z,101897.92
2022-10-13T15:58:53.918Z,101899.89
2022-10-13T16:01:22.630Z,101901.52
2022-10-13T16:03:55.411Z,101895.05
2022-10-13T16:06:25.035Z,101895.20
2022-10-13T16:08:53.839Z,101897.77
2022-10-13T16:11:23.747Z,101894.48
2022-10-13T16:13:52.771Z,101895.03
2022-10-13T16:16:22.588Z,101901.48
2022-10-13T16:18:51.625Z,101902.67
2022-10-13T16:21:26.254Z,101907.13
2022-10-13T16:23:54.899Z,101907.37
2022-10-13T16:26:24.294Z,101899.87
2022-10-13T16:28:56.983Z,101898.92
2022-10-13T16:31:25.809Z,101903.48
2022-10-13T16:33:54.732Z,101908.48
2022-10-13T16:36:24.801Z,101909.45
2022-10-13T16:38:55.225Z,101907.53
2022-10-13T16:41:24.443Z,101909.43
2022-10-13T16:43:53.161Z,101910.54
2022-10-13T16:46:21.744Z,101910.41
2022-10-13T16:48:50.359Z,101907.73
2022-10-13T16:51:22.736Z,101911.06
2022-10-13T16:54:03.581Z,101908.18
2022-10-13T16:56:33.399Z,101910.66
2022-10-13T16:59:05.299Z,101907.77
2022-10-13T17:01:36.444Z,101910.68
2022-10-13T17:04:05.331Z,101911.61
2022-10-13T17:06:34.077Z,101909.40
2022-10-13T17:09:03.496Z,101909.01
2022-10-13T17:11:37.735Z,101904.25
2022-10-13T17:14:06.981Z,101905.06
2022-10-13T17:16:36.259Z,101901.98
2022-10-13T17:19:05.005Z,101901.09
2022-10-13T17:21:37.626Z,101898.45
2022-10-13T17:24:07.758Z,101895.30
2022-10-13T17:26:36.895Z,101895.88
2022-10-13T17:29:05.551Z,101895.48
2022-10-13T17:31:34.159Z,101889.44
2022-10-13T17:34:02.908Z,101887.16
2022-10-13T17:36:34.600Z,101893.66
2022-10-13T17:39:11.511Z,101892.23
2022-10-13T17:41:41.533Z,101893.48
2022-10-13T17:44:11.457Z,101893.17
2022-10-13T17:46:42.490Z,101891.91
2022-10-13T17:49:12.815Z,101888.79
2022-10-13T17:51:42.983Z,101888.02
2022-10-13T17:54:15.987Z,101891.52
2022-10-13T17:56:47.610Z,101891.02
2022-10-13T17:59:17.820Z,101889.15
2022-10-13T18:01:46.901Z,101889.08
2022-10-13T18:04:19.342Z,101888.09
2022-10-13T18:06:48.126Z,101880.55
2022-10-13T18:09:20.442Z,101882.19
2022-10-13T18:11:51.164Z,101877.99
2022-10-13T18:14:25.116Z,101878.33
2022-10-13T18:16:53.790Z,101880.11
2022-10-13T18:19:25.101Z,101883.33
2022-10-13T18:21:53.711Z,101885.14
2022-10-13T18:24:22.479Z,101888.08
2022-10-13T18:26:51.194Z,101889.70
2022-10-13T18:29:20.464Z,101891.06
2022-10-13T18:31:49.087Z,101890.17
2022-10-13T18:34:17.952Z,101892.90
2022-10-13T18:36:51.061Z,101892.96
2022-10-13T18:39:21.797Z,101893.64
2022-10-13T18:41:51.745Z,101894.27
2022-10-13T18:44:26.800Z,101891.62
2022-10-13T18:47:03.739Z,101896.03
2022-10-13T18:49:35.191Z,101891.45
2022-10-13T18:52:04.373Z,101891.50
2022-10-13T18:54:33.300Z,101894.87
2022-10-13T18:57:02.011Z,101894.73
2022-10-13T18:59:42.012Z,101898.06
2022-10-13T19:02:14.947Z,101897.83
2022-10-13T19:04:43.486Z,101897.42
2022-10-13T19:07:12.136Z,101896.11
2022-10-13T19:09:40.717Z,101895.58
2022-10-13T19:12:09.334Z,101892.98
2022-10-13T19:14:38.013Z,101892.04
2022-10-13T19:17:06.560Z,101893.73
2022-10-13T19:19:38.249Z,101892.46
2022-10-13T19:22:08.001Z,101890.58
2022-10-13T19:24:36.759Z,101888.98
2022-10-13T19:27:05.343Z,101887.17
2022-10-13T19:29:35.709Z,101890.20
2022-10-13T19:32:04.485Z,101888.25
2022-10-13T19:34:33.503Z,101886.27
2022-10-13T19:37:03.685Z,101885.54
2022-10-13T19:39:32.309Z,101880.96
2022-10-13T19:42:01.799Z,101885.46
2022-10-13T19:44:36.057Z,101881.63
2022-10-13T19:47:13.222Z,101877.90
2022-10-13T19:49:42.319Z,101889.29
2022-10-13T19:52:10.914Z,101886.08
2022-10-13T19:54:40.302Z,101887.70
2022-10-13T19:57:10.252Z,101886.00
2022-10-13T19:59:38.866Z,101881.11
2022-10-13T20:02:07.438Z,101880.67
2022-10-13T20:04:36.209Z,101880.74
2022-10-13T20:07:07.450Z,101877.16
2022-10-13T20:09:38.875Z,101876.48
2022-10-13T20:12:09.073Z,101872.88
2022-10-13T20:14:42.087Z,101875.33
2022-10-13T20:17:10.631Z,101877.59
2022-10-13T20:19:39.215Z,101874.48
2022-10-13T20:22:07.924Z,101873.94
2022-10-13T20:24:36.546Z,101873.70
2022-10-13T20:27:05.082Z,101878.37
2022-10-13T20:29:33.583Z,101882.71
2022-10-13T20:32:02.254Z,101880.64
2022-10-13T20:34:31.680Z,101879.13
2022-10-13T20:37:00.435Z,101876.43
2022-10-13T20:39:29.943Z,101874.38
2022-10-13T20:41:58.990Z,101878.24
2022-10-13T20:44:27.906Z,101869.59
2022-10-13T20:46:56.643Z,101878.48
2022-10-13T20:49:26.372Z,101878.42
2022-10-13T20:51:54.870Z,101874.69
2022-10-13T20:54:23.703Z,101877.50
2022-10-13T20:56:53.066Z,101874.27
2022-10-13T20:59:21.532Z,101875.48
2022-10-13T21:01:50.244Z,101872.77
2022-10-13T21:04:18.810Z,101874.09
2022-10-13T21:06:47.323Z,101873.08
2022-10-13T21:09:15.966Z,101878.05
2022-10-13T21:12:05.046Z,101881.94
2022-10-13T21:14:43.428Z,101877.95
2022-10-13T21:17:23.207Z,101872.45
2022-10-13T21:19:55.708Z,101868.34
2022-10-13T21:22:24.467Z,101869.96
2022-10-13T21:24:53.693Z,101867.48
2022-10-13T21:27:22.741Z,101864.89
2022-10-13T21:29:51.756Z,101866.83
2022-10-13T21:32:40.091Z,101863.93
2022-10-13T21:35:17.391Z,101862.57
2022-10-13T21:37:46.088Z,101863.36
2022-10-13T21:40:15.122Z,101862.76
2022-10-13T21:42:43.811Z,101865.33
2022-10-13T21:45:12.658Z,101866.40
2022-10-13T21:47:41.438Z,101867.61
2022-10-13T21:50:10.423Z,101866.92
2022-10-13T21:52:38.955Z,101866.84
2022-10-13T21:55:08.321Z,101869.83
2022-10-13T21:57:36.929Z,101869.90
2022-10-13T22:00:06.865Z,101868.79
2022-10-13T22:03:01.147Z,101868.45
2022-10-13T22:05:43.004Z,101866.48
2022-10-13T22:08:11.531Z,101868.15
2022-10-13T22:10:40.035Z,101870.20
2022-10-13T22:13:08.602Z,101865.54
2022-10-13T22:15:37.112Z,101866.67
2022-10-13T22:18:05.872Z,101868.67
2022-10-13T22:20:37.426Z,101869.39
2022-10-13T22:23:06.111Z,101872.57
2022-10-13T22:25:35.334Z,101873.45
2022-10-13T22:28:03.912Z,101872.63
2022-10-13T22:30:32.471Z,101870.31
2022-10-13T22:33:01.060Z,101870.40
2022-10-13T22:35:29.823Z,101872.09
2022-10-13T22:37:58.311Z,101870.76
2022-10-13T22:40:26.962Z,101869.67
2022-10-13T22:42:55.465Z,101871.80
2022-10-13T22:45:24.232Z,101869.49
2022-10-13T22:47:52.957Z,101867.95
2022-10-13T22:50:21.524Z,101872.52
2022-10-13T22:52:51.193Z,101873.73
2022-10-13T22:55:19.738Z,101873.93
2022-10-13T22:57:48.349Z,101880.55
2022-10-13T23:00:17.132Z,101878.55
2022-10-13T23:02:47.776Z,101879.45
2022-10-13T23:05:16.268Z,101879.44
2022-10-13T23:07:44.831Z,101877.66
2022-10-13T23:10:13.421Z,101879.96
2022-10-13T23:12:43.878Z,101880.02
2022-10-13T23:15:12.468Z,101878.02
2022-10-13T23:17:52.663Z,101876.02
2022-10-13T23:20:21.290Z,101875.00
2022-10-13T23:22:53.320Z,101878.40
2022-10-13T23:25:21.902Z,101875.67
2022-10-13T23:27:50.435Z,101877.86
2022-10-13T23:30:19.161Z,101872.24
2022-10-13T23:32:47.723Z,101872.70
2022-10-13T23:35:16.828Z,101872.77
2022-10-13T23:37:45.421Z,101871.91
2022-10-13T23:40:14.035Z,101870.46
2022-10-13T23:42:42.538Z,101872.55
2022-10-13T23:45:11.469Z,101866.21
2022-10-13T23:47:39.988Z,101864.05
2022-10-13T23:50:09.194Z,101866.44
2022-10-13T23:52:37.776Z,101863.51
2022-10-13T23:55:06.605Z,101860.99
2022-10-13T23:57:35.141Z,101860.81
